Terminal Aerodrome Forecast
Issued by NWS

Home | Current Version | Previous Version | Text Only | Print | Product List | Glossary On
Versions: 1 2 3 4 5 6 7 8 9 10 11 12 13 14
000
FTUS43 KGRB 211120
TAFAUW
TAF
KAUW 211120Z 2112/2212 31009KT P6SM SCT150
     FM211300 33011G19KT P6SM SCT150
     FM211600 34011G19KT P6SM SCT045
     FM220000 35009G14KT P6SM FEW050
     FM220200 01005KT P6SM SKC=

USA.gov is the U.S. government's official web portal to all federal, state and local government web resources and services.